sensor_id;sensor_type;location;lat;lon;timestamp;temperature;humidity
15625;DHT22;7912;51.376;6.126;2022-08-19T00:02:12;22.20;99.90
15625;DHT22;7912;51.376;6.126;2022-08-19T00:04:39;22.20;99.90
15625;DHT22;7912;51.376;6.126;2022-08-19T00:07:07;22.10;99.90
15625;DHT22;7912;51.376;6.126;2022-08-19T00:09:34;22.10;99.90
15625;DHT22;7912;51.376;6.126;2022-08-19T00:12:02;22.10;99.90
15625;DHT22;7912;51.376;6.126;2022-08-19T00:14:30;22.10;99.90
15625;DHT22;7912;51.376;6.126;2022-08-19T00:17:01;22.00;99.90
15625;DHT22;7912;51.376;6.126;2022-08-19T00:19:29;22.00;99.90
15625;DHT22;7912;51.376;6.126;2022-08-19T00:21:57;22.00;99.90
15625;DHT22;7912;51.376;6.126;2022-08-19T00:24:24;22.00;99.90
15625;DHT22;7912;51.376;6.126;2022-08-19T00:26:52;21.90;99.90
15625;DHT22;7912;51.376;6.126;2022-08-19T00:29:20;21.90;99.90
15625;DHT22;7912;51.376;6.126;2022-08-19T00:31:48;21.90;99.90
15625;DHT22;7912;51.376;6.126;2022-08-19T00:34:16;21.90;99.90
15625;DHT22;7912;51.376;6.126;2022-08-19T00:36:44;21.90;99.90
15625;DHT22;7912;51.376;6.126;2022-08-19T00:39:13;21.90;99.90
15625;DHT22;7912;51.376;6.126;2022-08-19T00:41:41;21.80;99.90
15625;DHT22;7912;51.376;6.126;2022-08-19T00:44:20;21.80;99.90
15625;DHT22;7912;51.376;6.126;2022-08-19T00:46:55;21.80;99.90
15625;DHT22;7912;51.376;6.126;2022-08-19T00:49:36;21.80;99.90
15625;DHT22;7912;51.376;6.126;2022-08-19T00:52:08;21.80;99.90
15625;DHT22;7912;51.376;6.126;2022-08-19T00:54:40;21.70;99.90
15625;DHT22;7912;51.376;6.126;2022-08-19T00:57:12;21.70;99.90
15625;DHT22;7912;51.376;6.126;2022-08-19T00:59:44;21.70;99.90
15625;DHT22;7912;51.376;6.126;2022-08-19T01:02:28;21.70;99.90
15625;DHT22;7912;51.376;6.126;2022-08-19T01:04:57;21.70;99.90
15625;DHT22;7912;51.376;6.126;2022-08-19T01:07:25;21.60;99.90
15625;DHT22;7912;51.376;6.126;2022-08-19T01:09:53;21.60;99.90
15625;DHT22;7912;51.376;6.126;2022-08-19T01:12:21;21.50;99.90
15625;DHT22;7912;51.376;6.126;2022-08-19T01:14:49;21.50;99.90
15625;DHT22;7912;51.376;6.126;2022-08-19T01:17:17;21.50;99.90
15625;DHT22;7912;51.376;6.126;2022-08-19T01:19:46;21.50;99.90
15625;DHT22;7912;51.376;6.126;2022-08-19T01:24:57;21.40;99.90
15625;DHT22;7912;51.376;6.126;2022-08-19T01:27:25;21.30;99.90
15625;DHT22;7912;51.376;6.126;2022-08-19T01:29:55;21.30;99.90
15625;DHT22;7912;51.376;6.126;2022-08-19T01:32:22;21.30;99.90
15625;DHT22;7912;51.376;6.126;2022-08-19T01:35:00;21.20;99.90
15625;DHT22;7912;51.376;6.126;2022-08-19T01:37:30;21.20;99.90
15625;DHT22;7912;51.376;6.126;2022-08-19T01:40:08;21.20;99.90
15625;DHT22;7912;51.376;6.126;2022-08-19T01:42:36;21.20;99.90
15625;DHT22;7912;51.376;6.126;2022-08-19T01:45:05;21.10;99.90
15625;DHT22;7912;51.376;6.126;2022-08-19T01:47:35;21.10;99.90
15625;DHT22;7912;51.376;6.126;2022-08-19T01:50:06;21.10;99.90
15625;DHT22;7912;51.376;6.126;2022-08-19T01:52:38;21.10;99.90
15625;DHT22;7912;51.376;6.126;2022-08-19T01:55:14;21.00;99.90
15625;DHT22;7912;51.376;6.126;2022-08-19T01:57:47;21.00;99.90
15625;DHT22;7912;51.376;6.126;2022-08-19T02:00:20;21.00;99.90
15625;DHT22;7912;51.376;6.126;2022-08-19T02:02:49;21.00;99.90
15625;DHT22;7912;51.376;6.126;2022-08-19T02:05:17;20.90;99.90
15625;DHT22;7912;51.376;6.126;2022-08-19T02:07:45;20.90;99.90
15625;DHT22;7912;51.376;6.126;2022-08-19T02:10:16;20.90;99.90
15625;DHT22;7912;51.376;6.126;2022-08-19T02:12:45;20.90;99.90
15625;DHT22;7912;51.376;6.126;2022-08-19T02:15:13;20.90;99.90
15625;DHT22;7912;51.376;6.126;2022-08-19T02:17:41;20.80;99.90
15625;DHT22;7912;51.376;6.126;2022-08-19T02:20:09;20.80;99.90
15625;DHT22;7912;51.376;6.126;2022-08-19T02:22:37;20.80;99.90
15625;DHT22;7912;51.376;6.126;2022-08-19T02:25:04;20.80;99.90
15625;DHT22;7912;51.376;6.126;2022-08-19T02:27:32;20.70;99.90
15625;DHT22;7912;51.376;6.126;2022-08-19T02:30:00;20.70;99.90
15625;DHT22;7912;51.376;6.126;2022-08-19T02:32:27;20.70;99.90
15625;DHT22;7912;51.376;6.126;2022-08-19T02:34:57;20.70;99.90
15625;DHT22;7912;51.376;6.126;2022-08-19T02:37:24;20.70;99.90
15625;DHT22;7912;51.376;6.126;2022-08-19T02:40:10;20.70;99.90
15625;DHT22;7912;51.376;6.126;2022-08-19T02:42:38;20.70;99.90
15625;DHT22;7912;51.376;6.126;2022-08-19T02:45:07;20.70;99.90
15625;DHT22;7912;51.376;6.126;2022-08-19T02:47:36;20.60;99.90
15625;DHT22;7912;51.376;6.126;2022-08-19T02:50:04;20.60;99.90
15625;DHT22;7912;51.376;6.126;2022-08-19T02:52:33;20.60;99.90
15625;DHT22;7912;51.376;6.126;2022-08-19T02:55:01;20.60;99.90
15625;DHT22;7912;51.376;6.126;2022-08-19T02:57:30;20.60;99.90
15625;DHT22;7912;51.376;6.126;2022-08-19T03:00:03;20.60;99.90
15625;DHT22;7912;51.376;6.126;2022-08-19T03:02:32;20.60;99.90
15625;DHT22;7912;51.376;6.126;2022-08-19T03:04:59;20.50;99.90
15625;DHT22;7912;51.376;6.126;2022-08-19T03:07:26;20.50;99.90
15625;DHT22;7912;51.376;6.126;2022-08-19T03:09:53;20.50;99.90
15625;DHT22;7912;51.376;6.126;2022-08-19T03:12:21;20.50;99.90
15625;DHT22;7912;51.376;6.126;2022-08-19T03:14:48;20.40;99.90
15625;DHT22;7912;51.376;6.126;2022-08-19T03:17:15;20.40;99.90
15625;DHT22;7912;51.376;6.126;2022-08-19T03:19:42;20.40;99.90
15625;DHT22;7912;51.376;6.126;2022-08-19T03:22:10;20.40;99.90
15625;DHT22;7912;51.376;6.126;2022-08-19T03:24:38;20.40;99.90
15625;DHT22;7912;51.376;6.126;2022-08-19T03:27:05;20.30;99.90
15625;DHT22;7912;51.376;6.126;2022-08-19T03:29:32;20.30;99.90
15625;DHT22;7912;51.376;6.126;2022-08-19T03:32:10;20.30;99.90
15625;DHT22;7912;51.376;6.126;2022-08-19T03:34:57;20.30;99.90
15625;DHT22;7912;51.376;6.126;2022-08-19T03:37:24;20.30;99.90
15625;DHT22;7912;51.376;6.126;2022-08-19T03:39:52;20.30;99.90
15625;DHT22;7912;51.376;6.126;2022-08-19T03:42:19;20.30;99.90
15625;DHT22;7912;51.376;6.126;2022-08-19T03:45:04;20.20;99.90
15625;DHT22;7912;51.376;6.126;2022-08-19T03:47:33;20.20;99.90
15625;DHT22;7912;51.376;6.126;2022-08-19T03:50:01;20.20;99.90
15625;DHT22;7912;51.376;6.126;2022-08-19T03:52:28;20.20;99.90
15625;DHT22;7912;51.376;6.126;2022-08-19T03:54:56;20.20;99.90
15625;DHT22;7912;51.376;6.126;2022-08-19T03:57:23;20.20;99.90
15625;DHT22;7912;51.376;6.126;2022-08-19T03:59:58;20.20;99.90
15625;DHT22;7912;51.376;6.126;2022-08-19T04:02:40;20.20;99.90
15625;DHT22;7912;51.376;6.126;2022-08-19T04:05:28;20.10;99.90
15625;DHT22;7912;51.376;6.126;2022-08-19T04:07:55;20.10;99.90
15625;DHT22;7912;51.376;6.126;2022-08-19T04:10:27;20.10;99.90
15625;DHT22;7912;51.376;6.126;2022-08-19T04:12:55;20.10;99.90
15625;DHT22;7912;51.376;6.126;2022-08-19T04:15:24;20.10;99.90
15625;DHT22;7912;51.376;6.126;2022-08-19T04:17:51;20.10;99.90
15625;DHT22;7912;51.376;6.126;2022-08-19T04:20:18;20.10;99.90
15625;DHT22;7912;51.376;6.126;2022-08-19T04:22:46;20.00;99.90
15625;DHT22;7912;51.376;6.126;2022-08-19T04:25:13;20.00;99.90
15625;DHT22;7912;51.376;6.126;2022-08-19T04:27:40;20.00;99.90
15625;DHT22;7912;51.376;6.126;2022-08-19T04:30:14;20.00;99.90
15625;DHT22;7912;51.376;6.126;2022-08-19T04:32:41;20.00;99.90
15625;DHT22;7912;51.376;6.126;2022-08-19T04:35:10;20.00;99.90
15625;DHT22;7912;51.376;6.126;2022-08-19T04:37:44;20.00;99.90
15625;DHT22;7912;51.376;6.126;2022-08-19T04:40:11;20.00;99.90
15625;DHT22;7912;51.376;6.126;2022-08-19T04:42:57;20.00;99.90
15625;DHT22;7912;51.376;6.126;2022-08-19T04:45:25;20.00;99.90
15625;DHT22;7912;51.376;6.126;2022-08-19T04:47:55;20.00;99.90
15625;DHT22;7912;51.376;6.126;2022-08-19T04:50:45;19.90;99.90
15625;DHT22;7912;51.376;6.126;2022-08-19T04:53:12;20.00;99.90
15625;DHT22;7912;51.376;6.126;2022-08-19T04:55:40;20.00;99.90
15625;DHT22;7912;51.376;6.126;2022-08-19T04:58:09;20.00;99.90
15625;DHT22;7912;51.376;6.126;2022-08-19T05:00:38;20.00;99.90
15625;DHT22;7912;51.376;6.126;2022-08-19T05:03:06;20.00;99.90
15625;DHT22;7912;51.376;6.126;2022-08-19T05:05:38;20.00;99.90
15625;DHT22;7912;51.376;6.126;2022-08-19T05:08:16;20.00;99.90
15625;DHT22;7912;51.376;6.126;2022-08-19T05:10:57;20.00;99.90
15625;DHT22;7912;51.376;6.126;2022-08-19T05:13:24;20.00;99.90
15625;DHT22;7912;51.376;6.126;2022-08-19T05:15:56;20.00;99.90
15625;DHT22;7912;51.376;6.126;2022-08-19T05:18:25;20.10;99.90
15625;DHT22;7912;51.376;6.126;2022-08-19T05:21:14;20.10;99.90
15625;DHT22;7912;51.376;6.126;2022-08-19T05:24:01;20.10;99.90
15625;DHT22;7912;51.376;6.126;2022-08-19T05:26:29;20.20;99.90
15625;DHT22;7912;51.376;6.126;2022-08-19T05:28:56;20.20;99.90
15625;DHT22;7912;51.376;6.126;2022-08-19T05:31:23;20.30;99.90
15625;DHT22;7912;51.376;6.126;2022-08-19T05:33:50;20.30;99.90
15625;DHT22;7912;51.376;6.126;2022-08-19T05:36:17;20.30;99.90
15625;DHT22;7912;51.376;6.126;2022-08-19T05:38:46;20.30;99.90
15625;DHT22;7912;51.376;6.126;2022-08-19T05:41:14;20.40;99.90
15625;DHT22;7912;51.376;6.126;2022-08-19T05:43:43;20.40;99.90
15625;DHT22;7912;51.376;6.126;2022-08-19T05:46:18;20.40;99.90
15625;DHT22;7912;51.376;6.126;2022-08-19T05:48:54;20.50;99.90
15625;DHT22;7912;51.376;6.126;2022-08-19T05:51:24;20.50;99.90
15625;DHT22;7912;51.376;6.126;2022-08-19T05:53:54;20.60;99.90
15625;DHT22;7912;51.376;6.126;2022-08-19T05:56:22;20.60;99.90
15625;DHT22;7912;51.376;6.126;2022-08-19T05:58:49;20.60;99.90
15625;DHT22;7912;51.376;6.126;2022-08-19T06:01:17;20.60;99.90
15625;DHT22;7912;51.376;6.126;2022-08-19T06:03:45;20.60;99.90
15625;DHT22;7912;51.376;6.126;2022-08-19T06:06:15;20.70;99.90
15625;DHT22;7912;51.376;6.126;2022-08-19T06:08:42;20.70;99.90
15625;DHT22;7912;51.376;6.126;2022-08-19T06:11:42;20.80;99.90
15625;DHT22;7912;51.376;6.126;2022-08-19T06:14:21;20.80;99.90
15625;DHT22;7912;51.376;6.126;2022-08-19T06:16:53;20.90;99.90
15625;DHT22;7912;51.376;6.126;2022-08-19T06:19:22;21.00;99.90
15625;DHT22;7912;51.376;6.126;2022-08-19T06:21:55;21.00;99.90
15625;DHT22;7912;51.376;6.126;2022-08-19T06:24:27;21.10;99.90
15625;DHT22;7912;51.376;6.126;2022-08-19T06:26:56;21.20;99.90
15625;DHT22;7912;51.376;6.126;2022-08-19T06:29:28;21.30;99.90
15625;DHT22;7912;51.376;6.126;2022-08-19T06:31:58;21.40;99.90
15625;DHT22;7912;51.376;6.126;2022-08-19T06:34:29;21.40;99.90
15625;DHT22;7912;51.376;6.126;2022-08-19T06:37:00;21.50;99.90
15625;DHT22;7912;51.376;6.126;2022-08-19T06:39:34;21.60;99.90
15625;DHT22;7912;51.376;6.126;2022-08-19T06:42:06;21.70;99.90
15625;DHT22;7912;51.376;6.126;2022-08-19T06:44:38;21.70;99.90
15625;DHT22;7912;51.376;6.126;2022-08-19T06:47:11;21.80;99.90
15625;DHT22;7912;51.376;6.126;2022-08-19T06:49:53;22.00;99.90
15625;DHT22;7912;51.376;6.126;2022-08-19T06:52:34;22.10;99.90
15625;DHT22;7912;51.376;6.126;2022-08-19T06:55:04;22.20;99.90
15625;DHT22;7912;51.376;6.126;2022-08-19T06:57:32;22.30;99.90
15625;DHT22;7912;51.376;6.126;2022-08-19T07:00:00;22.40;99.90
15625;DHT22;7912;51.376;6.126;2022-08-19T07:02:28;22.40;99.90
15625;DHT22;7912;51.376;6.126;2022-08-19T07:04:56;22.50;99.90
15625;DHT22;7912;51.376;6.126;2022-08-19T07:07:32;22.60;99.90
15625;DHT22;7912;51.376;6.126;2022-08-19T07:10:00;22.70;99.90
15625;DHT22;7912;51.376;6.126;2022-08-19T07:12:32;22.80;99.90
15625;DHT22;7912;51.376;6.126;2022-08-19T07:15:05;22.90;99.90
15625;DHT22;7912;51.376;6.126;2022-08-19T07:17:35;22.90;99.90
15625;DHT22;7912;51.376;6.126;2022-08-19T07:20:07;23.00;99.90
15625;DHT22;7912;51.376;6.126;2022-08-19T07:22:37;23.10;99.90
15625;DHT22;7912;51.376;6.126;2022-08-19T07:25:06;23.20;99.90
15625;DHT22;7912;51.376;6.126;2022-08-19T07:27:35;23.30;99.90
15625;DHT22;7912;51.376;6.126;2022-08-19T07:30:06;23.40;99.90
15625;DHT22;7912;51.376;6.126;2022-08-19T07:32:38;23.60;99.90
15625;DHT22;7912;51.376;6.126;2022-08-19T07:35:07;23.70;99.90
15625;DHT22;7912;51.376;6.126;2022-08-19T07:37:36;23.80;99.90
15625;DHT22;7912;51.376;6.126;2022-08-19T07:40:06;23.90;99.90
15625;DHT22;7912;51.376;6.126;2022-08-19T07:42:34;24.00;99.90
15625;DHT22;7912;51.376;6.126;2022-08-19T07:45:03;24.10;99.90
15625;DHT22;7912;51.376;6.126;2022-08-19T07:47:32;24.10;99.90
15625;DHT22;7912;51.376;6.126;2022-08-19T07:50:17;24.20;99.90
15625;DHT22;7912;51.376;6.126;2022-08-19T07:52:47;24.20;99.90
15625;DHT22;7912;51.376;6.126;2022-08-19T07:55:22;24.20;99.90
15625;DHT22;7912;51.376;6.126;2022-08-19T07:58:11;24.30;99.90
15625;DHT22;7912;51.376;6.126;2022-08-19T08:00:41;24.30;99.90
15625;DHT22;7912;51.376;6.126;2022-08-19T08:03:09;24.50;99.90
15625;DHT22;7912;51.376;6.126;2022-08-19T08:05:37;24.60;99.90
15625;DHT22;7912;51.376;6.126;2022-08-19T08:08:23;24.70;99.90
15625;DHT22;7912;51.376;6.126;2022-08-19T08:11:03;24.80;99.90
15625;DHT22;7912;51.376;6.126;2022-08-19T08:13:34;24.90;99.90
15625;DHT22;7912;51.376;6.126;2022-08-19T08:16:04;25.00;99.90
15625;DHT22;7912;51.376;6.126;2022-08-19T08:18:39;25.00;99.90
15625;DHT22;7912;51.376;6.126;2022-08-19T08:21:16;25.00;99.90
15625;DHT22;7912;51.376;6.126;2022-08-19T08:23:43;25.10;99.90
15625;DHT22;7912;51.376;6.126;2022-08-19T08:26:11;25.10;99.90
15625;DHT22;7912;51.376;6.126;2022-08-19T08:28:41;25.20;99.90
15625;DHT22;7912;51.376;6.126;2022-08-19T08:31:13;25.20;99.90
15625;DHT22;7912;51.376;6.126;2022-08-19T08:33:41;25.30;99.90
15625;DHT22;7912;51.376;6.126;2022-08-19T08:36:09;25.30;99.90
15625;DHT22;7912;51.376;6.126;2022-08-19T08:38:38;25.30;99.90
15625;DHT22;7912;51.376;6.126;2022-08-19T08:44:15;25.50;99.90
15625;DHT22;7912;51.376;6.126;2022-08-19T08:47:00;25.60;99.90
15625;DHT22;7912;51.376;6.126;2022-08-19T08:49:55;25.70;99.90
15625;DHT22;7912;51.376;6.126;2022-08-19T08:52:37;25.90;99.90
15625;DHT22;7912;51.376;6.126;2022-08-19T08:55:15;26.10;99.90
15625;DHT22;7912;51.376;6.126;2022-08-19T09:02:50;26.90;99.90
15625;DHT22;7912;51.376;6.126;2022-08-19T09:05:21;27.20;99.90
15625;DHT22;7912;51.376;6.126;2022-08-19T09:08:06;27.50;99.90
15625;DHT22;7912;51.376;6.126;2022-08-19T09:10:53;27.80;99.90
15625;DHT22;7912;51.376;6.126;2022-08-19T09:16:17;28.40;99.90
15625;DHT22;7912;51.376;6.126;2022-08-19T09:18:56;28.70;99.40
15625;DHT22;7912;51.376;6.126;2022-08-19T09:21:28;29.00;99.50
15625;DHT22;7912;51.376;6.126;2022-08-19T09:24:00;29.20;99.10
15625;DHT22;7912;51.376;6.126;2022-08-19T09:26:29;29.40;98.80
15625;DHT22;7912;51.376;6.126;2022-08-19T09:29:18;29.60;98.10
15625;DHT22;7912;51.376;6.126;2022-08-19T09:31:48;29.80;97.70
15625;DHT22;7912;51.376;6.126;2022-08-19T09:34:16;29.90;97.20
15625;DHT22;7912;51.376;6.126;2022-08-19T09:36:48;30.00;97.10
15625;DHT22;7912;51.376;6.126;2022-08-19T09:39:20;30.20;96.50
15625;DHT22;7912;51.376;6.126;2022-08-19T09:41:48;30.40;96.00
15625;DHT22;7912;51.376;6.126;2022-08-19T09:44:17;30.50;95.50
15625;DHT22;7912;51.376;6.126;2022-08-19T09:46:45;30.60;94.90
15625;DHT22;7912;51.376;6.126;2022-08-19T09:49:17;30.70;94.50
15625;DHT22;7912;51.376;6.126;2022-08-19T09:51:49;30.80;94.30
15625;DHT22;7912;51.376;6.126;2022-08-19T09:54:18;30.90;93.30
15625;DHT22;7912;51.376;6.126;2022-08-19T09:56:52;30.90;93.10
15625;DHT22;7912;51.376;6.126;2022-08-19T09:59:20;30.90;92.80
15625;DHT22;7912;51.376;6.126;2022-08-19T10:01:47;30.90;92.60
15625;DHT22;7912;51.376;6.126;2022-08-19T10:04:15;31.00;92.50
15625;DHT22;7912;51.376;6.126;2022-08-19T10:06:49;31.10;92.00
15625;DHT22;7912;51.376;6.126;2022-08-19T10:09:22;31.10;91.80
15625;DHT22;7912;51.376;6.126;2022-08-19T10:12:01;31.20;91.10
15625;DHT22;7912;51.376;6.126;2022-08-19T10:14:31;31.30;90.40
15625;DHT22;7912;51.376;6.126;2022-08-19T10:17:00;31.40;90.60
15625;DHT22;7912;51.376;6.126;2022-08-19T10:19:47;31.50;90.40
15625;DHT22;7912;51.376;6.126;2022-08-19T10:22:23;31.60;90.50
15625;DHT22;7912;51.376;6.126;2022-08-19T10:24:52;31.60;89.70
15625;DHT22;7912;51.376;6.126;2022-08-19T10:27:20;31.70;89.40
15625;DHT22;7912;51.376;6.126;2022-08-19T10:29:48;31.80;89.40
15625;DHT22;7912;51.376;6.126;2022-08-19T10:32:16;31.80;88.70
15625;DHT22;7912;51.376;6.126;2022-08-19T10:34:43;31.80;88.70
15625;DHT22;7912;51.376;6.126;2022-08-19T10:37:15;31.90;87.80
15625;DHT22;7912;51.376;6.126;2022-08-19T10:39:56;31.90;86.60
15625;DHT22;7912;51.376;6.126;2022-08-19T10:42:24;31.80;86.90
15625;DHT22;7912;51.376;6.126;2022-08-19T10:44:51;31.70;86.90
15625;DHT22;7912;51.376;6.126;2022-08-19T10:47:18;31.60;87.00
15625;DHT22;7912;51.376;6.126;2022-08-19T10:49:52;31.70;86.60
15625;DHT22;7912;51.376;6.126;2022-08-19T10:52:42;31.70;86.40
15625;DHT22;7912;51.376;6.126;2022-08-19T10:55:18;31.90;85.50
15625;DHT22;7912;51.376;6.126;2022-08-19T10:58:18;32.00;84.90
15625;DHT22;7912;51.376;6.126;2022-08-19T11:00:56;32.20;84.50
15625;DHT22;7912;51.376;6.126;2022-08-19T11:03:26;32.30;83.90
15625;DHT22;7912;51.376;6.126;2022-08-19T11:06:03;32.60;82.20
15625;DHT22;7912;51.376;6.126;2022-08-19T11:08:33;32.80;82.10
15625;DHT22;7912;51.376;6.126;2022-08-19T11:11:05;32.90;81.10
15625;DHT22;7912;51.376;6.126;2022-08-19T11:13:53;33.10;80.70
15625;DHT22;7912;51.376;6.126;2022-08-19T11:16:22;33.20;78.00
15625;DHT22;7912;51.376;6.126;2022-08-19T11:18:55;33.40;77.00
15625;DHT22;7912;51.376;6.126;2022-08-19T11:21:32;33.50;75.10
15625;DHT22;7912;51.376;6.126;2022-08-19T11:24:05;33.60;74.40
15625;DHT22;7912;51.376;6.126;2022-08-19T11:26:35;33.70;73.60
15625;DHT22;7912;51.376;6.126;2022-08-19T11:29:05;33.80;73.70
15625;DHT22;7912;51.376;6.126;2022-08-19T11:31:43;33.90;73.80
15625;DHT22;7912;51.376;6.126;2022-08-19T11:34:15;34.00;73.00
15625;DHT22;7912;51.376;6.126;2022-08-19T11:36:45;34.10;71.20
15625;DHT22;7912;51.376;6.126;2022-08-19T11:39:16;34.20;69.60
15625;DHT22;7912;51.376;6.126;2022-08-19T11:41:45;34.20;69.60
15625;DHT22;7912;51.376;6.126;2022-08-19T11:44:13;34.20;68.80
15625;DHT22;7912;51.376;6.126;2022-08-19T11:46:42;34.20;68.00
15625;DHT22;7912;51.376;6.126;2022-08-19T11:49:16;34.00;68.10
15625;DHT22;7912;51.376;6.126;2022-08-19T11:51:48;34.00;67.70
15625;DHT22;7912;51.376;6.126;2022-08-19T11:54:19;34.00;68.40
15625;DHT22;7912;51.376;6.126;2022-08-19T11:56:47;34.00;68.40
15625;DHT22;7912;51.376;6.126;2022-08-19T11:59:15;34.00;68.00
15625;DHT22;7912;51.376;6.126;2022-08-19T12:01:43;34.00;67.60
15625;DHT22;7912;51.376;6.126;2022-08-19T12:04:10;34.10;67.70
15625;DHT22;7912;51.376;6.126;2022-08-19T12:06:40;34.20;67.40
15625;DHT22;7912;51.376;6.126;2022-08-19T12:09:09;34.30;66.20
15625;DHT22;7912;51.376;6.126;2022-08-19T12:11:38;34.30;66.60
15625;DHT22;7912;51.376;6.126;2022-08-19T12:14:09;34.40;67.20
15625;DHT22;7912;51.376;6.126;2022-08-19T12:16:40;34.50;66.90
15625;DHT22;7912;51.376;6.126;2022-08-19T12:19:17;34.50;67.00
15625;DHT22;7912;51.376;6.126;2022-08-19T12:21:49;34.50;66.70
15625;DHT22;7912;51.376;6.126;2022-08-19T12:24:17;34.60;66.60
15625;DHT22;7912;51.376;6.126;2022-08-19T12:26:50;34.50;66.50
15625;DHT22;7912;51.376;6.126;2022-08-19T12:29:19;34.50;67.50
15625;DHT22;7912;51.376;6.126;2022-08-19T12:31:50;34.40;67.80
15625;DHT22;7912;51.376;6.126;2022-08-19T12:34:18;34.30;67.80
15625;DHT22;7912;51.376;6.126;2022-08-19T12:36:46;34.30;68.20
15625;DHT22;7912;51.376;6.126;2022-08-19T12:39:16;34.20;67.90
15625;DHT22;7912;51.376;6.126;2022-08-19T12:41:44;34.10;68.00
15625;DHT22;7912;51.376;6.126;2022-08-19T12:44:21;34.10;67.50
15625;DHT22;7912;51.376;6.126;2022-08-19T12:46:57;34.00;67.80
15625;DHT22;7912;51.376;6.126;2022-08-19T12:49:28;34.00;67.40
15625;DHT22;7912;51.376;6.126;2022-08-19T12:52:16;34.10;66.70
15625;DHT22;7912;51.376;6.126;2022-08-19T12:54:53;34.10;66.90
15625;DHT22;7912;51.376;6.126;2022-08-19T12:57:29;34.10;66.60
15625;DHT22;7912;51.376;6.126;2022-08-19T13:02:35;34.20;66.40
15625;DHT22;7912;51.376;6.126;2022-08-19T13:05:08;34.30;66.40
15625;DHT22;7912;51.376;6.126;2022-08-19T13:07:39;34.30;65.60
15625;DHT22;7912;51.376;6.126;2022-08-19T13:10:09;34.30;64.60
15625;DHT22;7912;51.376;6.126;2022-08-19T13:12:39;34.30;64.40
15625;DHT22;7912;51.376;6.126;2022-08-19T13:15:08;34.20;64.40
15625;DHT22;7912;51.376;6.126;2022-08-19T13:17:38;34.20;64.00
15625;DHT22;7912;51.376;6.126;2022-08-19T13:20:10;34.10;64.50
15625;DHT22;7912;51.376;6.126;2022-08-19T13:22:37;34.00;64.00
15625;DHT22;7912;51.376;6.126;2022-08-19T13:25:06;33.90;64.70
15625;DHT22;7912;51.376;6.126;2022-08-19T13:27:34;33.80;64.70
15625;DHT22;7912;51.376;6.126;2022-08-19T13:30:04;33.80;65.50
15625;DHT22;7912;51.376;6.126;2022-08-19T13:32:59;33.90;66.40
15625;DHT22;7912;51.376;6.126;2022-08-19T13:35:49;34.00;66.20
15625;DHT22;7912;51.376;6.126;2022-08-19T13:38:22;34.20;65.80
15625;DHT22;7912;51.376;6.126;2022-08-19T13:40:51;34.30;66.00
15625;DHT22;7912;51.376;6.126;2022-08-19T13:43:22;34.30;65.30
15625;DHT22;7912;51.376;6.126;2022-08-19T13:45:54;34.30;64.90
15625;DHT22;7912;51.376;6.126;2022-08-19T13:48:24;34.30;65.10
15625;DHT22;7912;51.376;6.126;2022-08-19T13:50:55;34.40;64.70
15625;DHT22;7912;51.376;6.126;2022-08-19T13:53:23;34.40;64.20
15625;DHT22;7912;51.376;6.126;2022-08-19T13:55:51;34.50;64.10
15625;DHT22;7912;51.376;6.126;2022-08-19T13:58:20;34.50;64.20
15625;DHT22;7912;51.376;6.126;2022-08-19T14:00:49;34.50;64.30
15625;DHT22;7912;51.376;6.126;2022-08-19T14:03:16;34.50;64.40
15625;DHT22;7912;51.376;6.126;2022-08-19T14:05:44;34.60;63.90
15625;DHT22;7912;51.376;6.126;2022-08-19T14:08:13;34.60;64.10
15625;DHT22;7912;51.376;6.126;2022-08-19T14:10:41;34.50;63.90
15625;DHT22;7912;51.376;6.126;2022-08-19T14:13:14;34.50;64.80
15625;DHT22;7912;51.376;6.126;2022-08-19T14:15:45;34.40;65.00
15625;DHT22;7912;51.376;6.126;2022-08-19T14:18:14;34.40;65.50
15625;DHT22;7912;51.376;6.126;2022-08-19T14:20:44;34.30;65.90
15625;DHT22;7912;51.376;6.126;2022-08-19T14:23:11;34.40;66.00
15625;DHT22;7912;51.376;6.126;2022-08-19T14:25:40;34.50;66.40
15625;DHT22;7912;51.376;6.126;2022-08-19T14:28:07;34.50;66.60
15625;DHT22;7912;51.376;6.126;2022-08-19T14:30:36;34.60;66.70
15625;DHT22;7912;51.376;6.126;2022-08-19T14:33:05;34.80;66.60
15625;DHT22;7912;51.376;6.126;2022-08-19T14:35:34;34.80;65.60
15625;DHT22;7912;51.376;6.126;2022-08-19T14:38:04;34.90;65.50
15625;DHT22;7912;51.376;6.126;2022-08-19T14:40:32;34.70;65.40
15625;DHT22;7912;51.376;6.126;2022-08-19T14:43:03;34.60;65.80
15625;DHT22;7912;51.376;6.126;2022-08-19T14:45:34;34.50;66.50
15625;DHT22;7912;51.376;6.126;2022-08-19T14:48:07;34.50;66.90
15625;DHT22;7912;51.376;6.126;2022-08-19T14:50:45;34.40;67.00
15625;DHT22;7912;51.376;6.126;2022-08-19T14:53:12;34.50;67.50
15625;DHT22;7912;51.376;6.126;2022-08-19T14:55:43;34.50;67.80
15625;DHT22;7912;51.376;6.126;2022-08-19T14:58:13;34.60;67.30
15625;DHT22;7912;51.376;6.126;2022-08-19T15:00:57;34.70;67.10
15625;DHT22;7912;51.376;6.126;2022-08-19T15:03:28;34.70;66.40
15625;DHT22;7912;51.376;6.126;2022-08-19T15:05:56;34.70;66.50
15625;DHT22;7912;51.376;6.126;2022-08-19T15:08:26;34.60;67.60
15625;DHT22;7912;51.376;6.126;2022-08-19T15:10:56;34.50;66.60
15625;DHT22;7912;51.376;6.126;2022-08-19T15:13:26;34.50;66.60
15625;DHT22;7912;51.376;6.126;2022-08-19T15:15:54;34.20;66.70
15625;DHT22;7912;51.376;6.126;2022-08-19T15:18:22;34.00;67.20
15625;DHT22;7912;51.376;6.126;2022-08-19T15:20:50;33.70;68.10
15625;DHT22;7912;51.376;6.126;2022-08-19T15:23:18;33.50;68.90
15625;DHT22;7912;51.376;6.126;2022-08-19T15:25:47;33.30;69.50
15625;DHT22;7912;51.376;6.126;2022-08-19T15:28:15;33.20;69.70
15625;DHT22;7912;51.376;6.126;2022-08-19T15:30:43;33.10;70.60
15625;DHT22;7912;51.376;6.126;2022-08-19T15:33:11;33.00;70.70
15625;DHT22;7912;51.376;6.126;2022-08-19T15:35:41;32.80;71.20
15625;DHT22;7912;51.376;6.126;2022-08-19T15:38:09;32.70;71.60
15625;DHT22;7912;51.376;6.126;2022-08-19T15:40:40;32.60;72.10
15625;DHT22;7912;51.376;6.126;2022-08-19T15:43:08;32.50;72.70
15625;DHT22;7912;51.376;6.126;2022-08-19T15:45:54;32.30;73.20
15625;DHT22;7912;51.376;6.126;2022-08-19T15:48:21;32.20;74.20
15625;DHT22;7912;51.376;6.126;2022-08-19T15:50:49;32.00;74.60
15625;DHT22;7912;51.376;6.126;2022-08-19T15:53:16;32.00;75.60
15625;DHT22;7912;51.376;6.126;2022-08-19T15:55:44;31.90;75.60
15625;DHT22;7912;51.376;6.126;2022-08-19T15:58:15;31.90;75.80
15625;DHT22;7912;51.376;6.126;2022-08-19T16:01:05;31.90;75.90
15625;DHT22;7912;51.376;6.126;2022-08-19T16:03:54;31.80;76.20
15625;DHT22;7912;51.376;6.126;2022-08-19T16:06:51;31.70;76.20
15625;DHT22;7912;51.376;6.126;2022-08-19T16:09:26;31.60;76.70
15625;DHT22;7912;51.376;6.126;2022-08-19T16:12:00;31.40;77.50
15625;DHT22;7912;51.376;6.126;2022-08-19T16:14:35;31.30;78.30
15625;DHT22;7912;51.376;6.126;2022-08-19T16:17:04;31.20;79.10
15625;DHT22;7912;51.376;6.126;2022-08-19T16:19:50;31.10;79.50
15625;DHT22;7912;51.376;6.126;2022-08-19T16:22:18;30.90;80.60
15625;DHT22;7912;51.376;6.126;2022-08-19T16:24:46;30.90;80.80
15625;DHT22;7912;51.376;6.126;2022-08-19T16:27:14;30.80;81.40
15625;DHT22;7912;51.376;6.126;2022-08-19T16:29:42;30.70;81.90